createdAt,value
2022-11-10T00:00:40.860Z,51.60
2022-11-10T00:03:09.465Z,51.56
2022-11-10T00:05:37.832Z,51.26
2022-11-10T00:08:06.164Z,51.60
2022-11-10T00:10:54.086Z,51.62
2022-11-10T00:13:23.966Z,51.67
2022-11-10T00:16:09.582Z,51.48
2022-11-10T00:18:37.414Z,51.76
2022-11-10T00:21:06.415Z,51.38
2022-11-10T00:23:34.204Z,51.91
2022-11-10T00:26:01.905Z,51.47
2022-11-10T00:28:32.604Z,51.88
2022-11-10T00:31:00.516Z,51.60
2022-11-10T00:33:28.220Z,51.89
2022-11-10T00:35:56.140Z,52.13
2022-11-10T00:38:23.898Z,52.05
2022-11-10T00:40:51.747Z,52.26
2022-11-10T00:43:25.325Z,51.93
2022-11-10T00:45:55.597Z,51.96
2022-11-10T00:48:23.531Z,52.06
2022-11-10T00:50:51.304Z,51.79
2022-11-10T00:53:19.957Z,52.31
2022-11-10T00:55:48.686Z,52.44
2022-11-10T00:58:16.490Z,52.01
2022-11-10T01:00:44.260Z,52.81
2022-11-10T01:03:16.130Z,52.49
2022-11-10T01:05:43.958Z,52.98
2022-11-10T01:08:11.897Z,53.45
2022-11-10T01:10:39.752Z,53.50
2022-11-10T01:13:07.457Z,53.51
2022-11-10T01:15:38.678Z,53.59
2022-11-10T01:18:06.466Z,53.92
2022-11-10T01:20:39.007Z,54.16
2022-11-10T01:23:16.449Z,54.47
2022-11-10T01:25:44.215Z,53.86
2022-11-10T01:28:11.972Z,54.06
2022-11-10T01:30:39.774Z,54.43
2022-11-10T01:33:07.537Z,54.11
2022-11-10T01:35:36.776Z,54.11
2022-11-10T01:38:21.650Z,53.93
2022-11-10T01:40:49.307Z,54.11
2022-11-10T01:43:17.255Z,54.05
2022-11-10T01:45:52.392Z,54.42
2022-11-10T01:48:30.939Z,54.41
2022-11-10T01:51:03.591Z,54.41
2022-11-10T01:53:32.063Z,54.68
2022-11-10T01:55:59.732Z,54.67
2022-11-10T01:58:30.114Z,54.62
2022-11-10T02:00:57.909Z,54.85
2022-11-10T02:03:28.690Z,54.85
2022-11-10T02:05:56.636Z,54.61
2022-11-10T02:08:26.114Z,54.95
2022-11-10T02:10:56.038Z,55.36
2022-11-10T02:13:24.064Z,55.42
2022-11-10T02:15:51.868Z,55.10
2022-11-10T02:18:19.590Z,55.36
2022-11-10T02:20:48.752Z,55.12
2022-11-10T02:23:31.879Z,55.70
2022-11-10T02:25:59.640Z,55.88
2022-11-10T02:28:27.508Z,55.33
2022-11-10T02:30:55.615Z,55.32
2022-11-10T02:33:23.622Z,55.16
2022-11-10T02:35:52.991Z,55.33
2022-11-10T02:38:20.794Z,54.97
2022-11-10T02:40:49.968Z,54.60
2022-11-10T02:43:18.271Z,54.81
2022-11-10T02:45:46.115Z,54.93
2022-11-10T02:48:14.708Z,54.87
2022-11-10T02:50:42.678Z,54.99
2022-11-10T02:53:11.999Z,54.96
2022-11-10T02:55:39.869Z,54.69
2022-11-10T02:58:07.704Z,54.98
2022-11-10T03:00:35.479Z,55.25
2022-11-10T03:03:03.502Z,55.31
2022-11-10T03:05:31.437Z,55.50
2022-11-10T03:07:59.822Z,55.19
2022-11-10T03:10:29.178Z,55.39
2022-11-10T03:12:57.481Z,55.58
2022-11-10T03:15:25.268Z,55.54
2022-11-10T03:17:53.116Z,55.32
2022-11-10T03:20:22.004Z,55.52
2022-11-10T03:22:49.751Z,55.42
2022-11-10T03:25:25.225Z,55.46
2022-11-10T03:27:54.349Z,55.41
2022-11-10T03:30:32.387Z,55.46
2022-11-10T03:33:00.439Z,55.99
2022-11-10T03:35:28.205Z,55.46
2022-11-10T03:37:55.979Z,55.87
2022-11-10T03:40:23.721Z,55.58
2022-11-10T03:42:51.398Z,55.60
2022-11-10T03:45:20.748Z,55.65
2022-11-10T03:47:48.683Z,55.83
2022-11-10T03:50:16.543Z,55.86
2022-11-10T03:52:45.042Z,55.67
2022-11-10T03:55:12.849Z,55.57
2022-11-10T03:57:40.635Z,55.39
2022-11-10T04:00:09.514Z,55.67
2022-11-10T04:02:38.597Z,55.70
2022-11-10T04:05:24.535Z,55.43
2022-11-10T04:08:15.170Z,55.93
2022-11-10T04:10:43.050Z,55.45
2022-11-10T04:13:28.173Z,55.64
2022-11-10T04:15:55.908Z,56.12
2022-11-10T04:18:29.595Z,55.88
2022-11-10T04:20:58.677Z,55.68
2022-11-10T04:23:31.125Z,55.58
2022-11-10T04:26:21.230Z,55.73
2022-11-10T04:28:50.545Z,55.94
2022-11-10T04:31:19.057Z,55.82
2022-11-10T04:33:48.556Z,56.07
2022-11-10T04:36:17.543Z,55.32
2022-11-10T04:38:45.552Z,55.98
2022-11-10T04:41:13.586Z,55.86
2022-11-10T04:43:41.546Z,56.05
2022-11-10T04:46:22.123Z,56.14
2022-11-10T04:48:51.501Z,56.14
2022-11-10T04:51:20.092Z,56.28
2022-11-10T04:53:48.084Z,56.68
2022-11-10T04:56:16.309Z,56.41
2022-11-10T04:58:44.194Z,56.54
2022-11-10T05:01:13.502Z,56.67
2022-11-10T05:03:41.665Z,56.57
2022-11-10T05:06:11.240Z,56.43
2022-11-10T05:08:39.304Z,56.79
2022-11-10T05:11:07.510Z,56.79
2022-11-10T05:13:36.797Z,56.67
2022-11-10T05:16:04.936Z,56.86
2022-11-10T05:18:32.932Z,56.74
2022-11-10T05:21:00.776Z,56.41
2022-11-10T05:23:39.147Z,56.82
2022-11-10T05:26:07.934Z,56.68
2022-11-10T05:28:35.904Z,56.79
2022-11-10T05:31:04.182Z,56.74
2022-11-10T05:33:32.046Z,56.59
2022-11-10T05:36:00.125Z,56.53
2022-11-10T05:38:29.562Z,56.72
2022-11-10T05:40:57.499Z,57.11
2022-11-10T05:43:25.852Z,56.92
2022-11-10T05:45:53.913Z,56.58
2022-11-10T05:48:21.871Z,56.55
2022-11-10T05:50:49.938Z,56.59
2022-11-10T05:53:17.909Z,56.60
2022-11-10T05:55:47.118Z,56.73
2022-11-10T05:58:15.358Z,56.73
2022-11-10T06:00:43.503Z,56.49
2022-11-10T06:03:14.508Z,56.59
2022-11-10T06:05:45.432Z,56.51
2022-11-10T06:08:13.278Z,56.36
2022-11-10T06:10:41.584Z,56.67
2022-11-10T06:13:10.832Z,56.30
2022-11-10T06:15:39.038Z,56.59
2022-11-10T06:18:07.033Z,56.27
2022-11-10T06:20:34.942Z,56.46
2022-11-10T06:23:03.959Z,56.41
2022-11-10T06:25:32.577Z,56.39
2022-11-10T06:28:00.570Z,57.02
2022-11-10T06:30:30.329Z,56.55
2022-11-10T06:32:58.800Z,56.56
2022-11-10T06:35:27.136Z,56.79
2022-11-10T06:37:59.046Z,57.06
2022-11-10T06:40:27.041Z,56.95
2022-11-10T06:42:54.902Z,57.09
2022-11-10T06:45:22.986Z,57.13
2022-11-10T06:48:00.915Z,57.00
2022-11-10T06:50:30.038Z,57.75
2022-11-10T06:53:00.525Z,57.75
2022-11-10T06:55:28.591Z,57.38
2022-11-10T06:57:56.626Z,57.50
2022-11-10T07:00:24.990Z,57.56
2022-11-10T07:03:05.576Z,57.46
2022-11-10T07:05:34.404Z,57.87
2022-11-10T07:08:05.606Z,57.44
2022-11-10T07:10:36.282Z,57.67
2022-11-10T07:13:05.589Z,57.49
2022-11-10T07:15:33.759Z,56.75
2022-11-10T07:18:06.251Z,57.23
2022-11-10T07:20:34.234Z,56.36
2022-11-10T07:23:02.622Z,56.78
2022-11-10T07:25:31.373Z,56.21
2022-11-10T07:27:59.966Z,56.06
2022-11-10T07:30:28.061Z,56.32
2022-11-10T07:33:00.172Z,55.85
2022-11-10T07:35:29.486Z,55.25
2022-11-10T07:37:57.608Z,55.12
2022-11-10T07:40:25.829Z,54.78
2022-11-10T07:42:53.962Z,54.51
2022-11-10T07:45:21.801Z,54.49
2022-11-10T07:47:50.302Z,54.04
2022-11-10T07:50:18.443Z,53.70
2022-11-10T07:52:47.767Z,54.01
2022-11-10T07:55:15.826Z,53.52
2022-11-10T07:57:43.855Z,53.91
2022-11-10T08:00:13.592Z,53.98
2022-11-10T08:02:41.706Z,53.68
2022-11-10T08:05:10.397Z,53.50
2022-11-10T08:07:38.295Z,53.32
2022-11-10T08:10:09.460Z,53.67
2022-11-10T08:12:37.281Z,53.69
2022-11-10T08:15:05.950Z,53.70
2022-11-10T08:17:34.142Z,53.45
2022-11-10T08:20:02.594Z,53.23
2022-11-10T08:22:30.585Z,53.19
2022-11-10T08:24:58.582Z,52.76
2022-11-10T08:27:28.582Z,52.60
2022-11-10T08:29:56.548Z,52.78
2022-11-10T08:32:28.826Z,52.27
2022-11-10T08:34:56.966Z,52.60
2022-11-10T08:37:24.867Z,52.34
2022-11-10T08:39:53.103Z,52.53
2022-11-10T08:42:24.281Z,52.32
2022-11-10T08:44:58.192Z,51.19
2022-11-10T08:47:26.186Z,51.22
2022-11-10T08:49:57.619Z,51.00
2022-11-10T08:52:25.948Z,50.27
2022-11-10T08:54:54.487Z,49.85
2022-11-10T08:57:22.553Z,49.12
2022-11-10T08:59:50.852Z,46.96
2022-11-10T09:02:21.149Z,46.11
2022-11-10T09:04:49.411Z,45.35
2022-11-10T09:07:18.807Z,44.74
2022-11-10T09:10:01.485Z,43.39
2022-11-10T09:12:35.667Z,42.91
2022-11-10T09:15:03.727Z,44.00
2022-11-10T09:17:35.502Z,43.68
2022-11-10T09:20:08.524Z,43.96
2022-11-10T09:22:44.832Z,44.01
2022-11-10T09:25:25.148Z,43.87
2022-11-10T09:27:53.116Z,43.48
2022-11-10T09:30:21.396Z,43.08
2022-11-10T09:32:56.287Z,42.95
2022-11-10T09:35:24.824Z,43.12
2022-11-10T09:37:57.036Z,40.46
2022-11-10T09:40:34.760Z,37.30
2022-11-10T09:43:03.603Z,34.10
2022-11-10T09:45:38.670Z,32.83
2022-11-10T09:48:17.053Z,31.67
2022-11-10T09:50:48.205Z,30.56
2022-11-10T09:53:22.723Z,28.21
2022-11-10T09:55:54.424Z,26.98
2022-11-10T09:58:27.136Z,26.91
2022-11-10T10:01:04.373Z,24.95
2022-11-10T10:03:34.873Z,24.46
2022-11-10T10:06:06.457Z,23.54
2022-11-10T10:08:44.225Z,23.32
2022-11-10T10:11:20.140Z,22.93
2022-11-10T10:14:13.481Z,22.21
2022-11-10T10:16:44.145Z,22.22
2022-11-10T11:10:58.523Z,17.82
2022-11-10T11:13:32.875Z,19.36
2022-11-10T12:05:41.835Z,19.58
2022-11-10T12:16:03.991Z,16.46
2022-11-10T12:35:14.503Z,19.68
2022-11-10T12:46:07.848Z,25.72
2022-11-10T12:48:51.436Z,26.88
2022-11-10T12:52:09.265Z,27.94
2022-11-10T12:54:37.034Z,28.41
2022-11-10T12:57:06.579Z,29.54
2022-11-10T13:14:21.395Z,32.07
2022-11-10T13:16:56.475Z,32.45
2022-11-10T13:19:53.487Z,32.86
2022-11-10T13:22:55.438Z,33.11
2022-11-10T13:25:54.351Z,33.33
2022-11-10T13:29:03.250Z,33.65
2022-11-10T13:32:12.323Z,33.85
2022-11-10T13:34:48.656Z,34.24
2022-11-10T13:37:51.006Z,34.59
2022-11-10T13:40:31.232Z,34.44
2022-11-10T13:43:29.796Z,34.95
2022-11-10T13:46:03.515Z,35.32
2022-11-10T13:48:47.274Z,35.60
2022-11-10T13:51:29.724Z,35.79
2022-11-10T13:54:05.579Z,36.17
2022-11-10T13:56:54.506Z,36.34
2022-11-10T13:59:23.369Z,36.31
2022-11-10T14:02:29.590Z,36.34
2022-11-10T14:04:59.308Z,36.37
2022-11-10T14:07:30.294Z,36.87
2022-11-10T14:09:58.529Z,36.57
2022-11-10T14:12:28.802Z,36.91
2022-11-10T14:15:02.174Z,36.62
2022-11-10T14:17:32.360Z,36.82
2022-11-10T14:20:01.680Z,37.00
2022-11-10T14:22:33.702Z,37.29
2022-11-10T14:25:04.402Z,37.17
2022-11-10T14:27:33.214Z,37.13
2022-11-10T14:30:07.268Z,36.71
2022-11-10T14:32:35.654Z,36.82
2022-11-10T14:35:05.865Z,37.03
2022-11-10T14:37:33.633Z,36.80
2022-11-10T14:40:02.495Z,36.67
2022-11-10T14:42:31.353Z,37.05
2022-11-10T14:45:09.524Z,37.09
2022-11-10T14:47:37.682Z,37.14
2022-11-10T14:50:16.115Z,37.47
2022-11-10T14:52:44.379Z,37.15
2022-11-10T14:55:16.181Z,37.46
2022-11-10T14:57:48.221Z,37.81
2022-11-10T15:00:19.606Z,37.79
2022-11-10T15:02:47.410Z,37.92
2022-11-10T15:05:16.810Z,38.37
2022-11-10T15:07:44.693Z,38.48
2022-11-10T15:10:16.291Z,38.64
2022-11-10T15:12:43.957Z,38.55
2022-11-10T15:15:22.462Z,38.71
2022-11-10T15:17:51.389Z,38.47
2022-11-10T15:20:34.961Z,38.81
2022-11-10T15:23:03.376Z,38.84
2022-11-10T15:25:38.502Z,39.19
2022-11-10T15:28:15.772Z,39.15
2022-11-10T15:30:51.468Z,39.36
2022-11-10T15:33:22.694Z,39.35
2022-11-10T15:35:51.981Z,39.85
2022-11-10T15:38:32.773Z,39.77
2022-11-10T15:41:14.226Z,40.39
2022-11-10T15:43:42.127Z,40.32
2022-11-10T15:46:17.796Z,40.76
2022-11-10T15:48:47.315Z,40.98
2022-11-10T15:51:22.859Z,41.17
2022-11-10T15:53:54.420Z,41.01
2022-11-10T15:56:23.683Z,41.38
2022-11-10T15:58:59.102Z,41.46
2022-11-10T16:01:30.217Z,41.69
2022-11-10T16:03:58.401Z,42.05
2022-11-10T16:06:30.226Z,42.17
2022-11-10T16:08:58.845Z,42.02
2022-11-10T16:11:27.220Z,42.25
2022-11-10T16:13:55.594Z,42.41
2022-11-10T16:16:24.570Z,42.32
2022-11-10T16:18:52.842Z,42.55
2022-11-10T16:21:22.398Z,42.69
2022-11-10T16:23:52.312Z,42.41
2022-11-10T16:26:22.948Z,42.58
2022-11-10T16:28:52.024Z,42.92
2022-11-10T16:31:22.019Z,43.00
2022-11-10T16:33:50.548Z,42.73
2022-11-10T16:36:23.474Z,42.80
2022-11-10T16:38:53.579Z,43.05
2022-11-10T16:41:22.566Z,43.12
2022-11-10T16:43:51.216Z,43.13
2022-11-10T16:46:21.744Z,43.37
2022-11-10T16:48:50.365Z,43.52
2022-11-10T16:51:19.544Z,43.21
2022-11-10T16:53:48.241Z,44.01
2022-11-10T16:56:20.808Z,44.40
2022-11-10T16:58:49.295Z,45.69
2022-11-10T17:01:20.154Z,45.88
2022-11-10T17:03:49.511Z,46.37
2022-11-10T17:06:18.884Z,46.99
2022-11-10T17:08:47.983Z,47.31
2022-11-10T17:11:18.074Z,47.95
2022-11-10T17:13:46.819Z,47.52
2022-11-10T17:16:19.337Z,48.25
2022-11-10T17:18:47.927Z,48.49
2022-11-10T17:21:16.643Z,49.16
2022-11-10T17:23:47.372Z,49.08
2022-11-10T17:26:17.620Z,49.13
2022-11-10T17:28:45.464Z,49.46
2022-11-10T17:31:14.223Z,49.83
2022-11-10T17:33:42.231Z,49.67
2022-11-10T17:36:13.538Z,49.79
2022-11-10T17:38:41.559Z,50.25
2022-11-10T17:41:10.026Z,49.75
2022-11-10T17:43:44.336Z,50.15
2022-11-10T17:46:13.308Z,50.71
2022-11-10T17:48:41.224Z,50.29
2022-11-10T17:51:11.036Z,50.74
2022-11-10T17:53:38.779Z,50.76
2022-11-10T17:56:06.910Z,50.60
2022-11-10T17:58:36.001Z,50.72
2022-11-10T18:01:15.030Z,50.74
2022-11-10T18:03:42.943Z,51.39
2022-11-10T18:06:14.276Z,51.42
2022-11-10T18:08:42.124Z,51.19
2022-11-10T18:11:10.223Z,51.14
2022-11-10T18:13:38.295Z,51.59
2022-11-10T18:16:08.972Z,51.49
2022-11-10T18:18:36.889Z,51.35
2022-11-10T18:21:04.809Z,51.60
2022-11-10T18:23:32.569Z,51.92
2022-11-10T18:26:04.406Z,51.94
2022-11-10T18:28:32.273Z,51.99
2022-11-10T18:31:00.101Z,51.95
2022-11-10T18:33:29.515Z,51.94
2022-11-10T18:35:59.838Z,52.41
2022-11-10T18:38:27.695Z,52.25
2022-11-10T18:40:55.473Z,52.10
2022-11-10T18:43:23.467Z,52.62
2022-11-10T18:45:53.683Z,52.67
2022-11-10T18:48:27.229Z,52.60
2022-11-10T18:50:58.644Z,52.33
2022-11-10T18:53:28.167Z,52.52
2022-11-10T18:55:56.917Z,52.22
2022-11-10T18:58:24.833Z,53.12
2022-11-10T19:00:52.668Z,52.49
2022-11-10T19:03:20.865Z,52.54
2022-11-10T19:05:55.726Z,52.54
2022-11-10T19:08:28.214Z,52.67
2022-11-10T19:10:56.137Z,52.21
2022-11-10T19:13:24.393Z,52.31
2022-11-10T19:15:52.456Z,52.41
2022-11-10T19:18:20.237Z,53.01
2022-11-10T19:20:48.223Z,52.48
2022-11-10T19:23:16.070Z,52.21
2022-11-10T19:25:46.792Z,52.35
2022-11-10T19:28:14.566Z,52.26
2022-11-10T19:30:42.380Z,52.22
2022-11-10T19:33:10.216Z,52.28
2022-11-10T19:35:42.274Z,52.34
2022-11-10T19:38:10.021Z,52.26
2022-11-10T19:40:39.157Z,52.62
2022-11-10T19:43:08.586Z,52.70
2022-11-10T19:45:36.331Z,52.13
2022-11-10T19:48:04.457Z,52.86
2022-11-10T19:50:32.173Z,52.96
2022-11-10T19:52:59.974Z,52.68
2022-11-10T19:55:27.749Z,53.08
2022-11-10T19:57:55.523Z,52.96
2022-11-10T20:00:24.760Z,53.04
2022-11-10T20:02:52.651Z,53.07
2022-11-10T20:05:20.382Z,52.97
2022-11-10T20:08:09.707Z,53.18
2022-11-10T20:10:37.644Z,53.31
2022-11-10T20:13:05.417Z,53.22
2022-11-10T20:15:34.542Z,53.32
2022-11-10T20:18:02.919Z,53.69
2022-11-10T20:20:30.750Z,53.78
2022-11-10T20:23:01.884Z,53.50
2022-11-10T20:25:29.795Z,53.84
2022-11-10T20:27:57.730Z,53.87
2022-11-10T20:30:25.731Z,53.58
2022-11-10T20:32:54.910Z,53.60
2022-11-10T20:35:22.719Z,53.68
2022-11-10T20:37:50.621Z,53.47
2022-11-10T20:40:42.948Z,53.52
2022-11-10T20:43:06.346Z,53.74
2022-11-10T20:45:34.126Z,53.60
2022-11-10T20:48:03.231Z,54.19
2022-11-10T20:50:31.028Z,54.14
2022-11-10T20:52:58.867Z,54.02
2022-11-10T20:55:52.028Z,54.02
2022-11-10T20:58:14.405Z,53.99
2022-11-10T21:00:43.721Z,54.26
2022-11-10T21:03:12.947Z,54.01
2022-11-10T21:05:40.811Z,54.06
2022-11-10T21:08:08.562Z,54.07
2022-11-10T21:10:36.376Z,53.89
2022-11-10T21:13:04.168Z,54.22
2022-11-10T21:15:32.018Z,54.30
2022-11-10T21:17:59.804Z,54.24
2022-11-10T21:20:29.020Z,54.17
2022-11-10T21:23:03.012Z,54.07
2022-11-10T21:25:31.113Z,54.26
2022-11-10T21:27:58.878Z,54.22
2022-11-10T21:30:26.600Z,54.04
2022-11-10T21:32:54.400Z,53.90
2022-11-10T21:35:22.278Z,54.43
2022-11-10T21:37:51.369Z,54.25
2022-11-10T21:40:19.209Z,54.02
2022-11-10T21:42:46.937Z,54.15
2022-11-10T21:45:14.801Z,54.16
2022-11-10T21:47:42.587Z,54.08
2022-11-10T21:50:10.498Z,54.23
2022-11-10T21:52:38.731Z,54.19
2022-11-10T21:55:09.528Z,53.97
2022-11-10T21:57:37.275Z,54.05
2022-11-10T22:00:05.923Z,54.36
2022-11-10T22:02:33.671Z,54.43
2022-11-10T22:05:01.439Z,54.39
2022-11-10T22:07:29.183Z,54.37
2022-11-10T22:10:14.616Z,54.90
2022-11-10T22:13:01.652Z,54.79
2022-11-10T22:15:46.829Z,54.58
2022-11-10T22:18:33.036Z,54.32
2022-11-10T22:21:00.731Z,54.88
2022-11-10T22:23:46.124Z,54.94
2022-11-10T22:26:13.998Z,54.78
2022-11-10T22:28:43.145Z,54.84
2022-11-10T22:31:11.224Z,54.88
2022-11-10T22:33:39.842Z,55.11
2022-11-10T22:36:12.935Z,54.84
2022-11-10T22:38:41.495Z,55.24
2022-11-10T22:41:30.822Z,54.90
2022-11-10T22:44:06.242Z,54.99
2022-11-10T22:46:35.092Z,55.22
2022-11-10T22:49:03.006Z,55.04
2022-11-10T22:51:31.272Z,55.01
2022-11-10T22:53:59.061Z,55.58
2022-11-10T22:56:26.903Z,55.03
2022-11-10T22:58:59.563Z,54.97
2022-11-10T23:01:29.257Z,55.29
2022-11-10T23:03:58.225Z,55.17
2022-11-10T23:06:26.087Z,54.99
2022-11-10T23:08:53.780Z,55.02
2022-11-10T23:11:22.520Z,55.36
2022-11-10T23:13:50.724Z,54.91
2022-11-10T23:16:19.611Z,55.33
2022-11-10T23:18:49.640Z,55.46
2022-11-10T23:21:18.769Z,55.37
2022-11-10T23:23:46.832Z,55.17
2022-11-10T23:28:49.404Z,55.53
2022-11-10T23:31:18.038Z,55.26
2022-11-10T23:33:46.541Z,55.26
2022-11-10T23:36:16.150Z,55.14
2022-11-10T23:38:43.998Z,55.53
2022-11-10T23:41:15.101Z,55.18
2022-11-10T23:43:43.857Z,55.66
2022-11-10T23:46:16.098Z,55.46
2022-11-10T23:48:45.025Z,55.69
2022-11-10T23:51:14.919Z,55.50
2022-11-10T23:53:45.320Z,55.53
2022-11-10T23:56:14.668Z,55.43
2022-11-10T23:58:43.337Z,55.20
